Time;durP1;ratioP1;P1;durP2;ratioP2;P2;SDS_P1;SDS_P2;PMS_P1;PMS_P2;Temp;Humidity;BMP_temperature;BMP_pressure;BME280_temperature;BME280_humidity;BME280_pressure;Samples;Min_cycle;Max_cycle;Signal;HPM_P1;HPM_P2
2021/11/07 00:01:08;;;;;;;1.50;1.40;;;16.60;56.20;;;;;;5059251;28;20027;-58
2021/11/07 00:04:00;;;;;;;1.88;1.42;;;16.60;56.20;;;;;;5060965;28;20033;-57
2021/11/07 00:06:32;;;;;;;1.33;1.20;;;16.60;56.20;;;;;;5059974;28;20480;-57
2021/11/07 00:09:22;;;;;;;1.33;1.23;;;16.60;56.20;;;;;;5075920;28;20020;-57
2021/11/07 00:11:55;;;;;;;1.77;1.35;;;16.60;56.20;;;;;;5075501;28;20028;-58
2021/11/07 00:14:22;;;;;;;1.20;1.10;;;16.60;56.20;;;;;;5075242;28;20039;-57
2021/11/07 00:16:48;;;;;;;1.25;1.15;;;16.60;56.20;;;;;;5077317;28;20039;-58
2021/11/07 00:19:38;;;;;;;2.88;1.48;;;16.60;56.20;;;;;;5076873;28;20112;-58
2021/11/07 00:22:09;;;;;;;1.88;1.20;;;16.60;56.30;;;;;;5074602;28;20021;-57
2021/11/07 00:24:47;;;;;;;1.40;1.30;;;16.60;56.20;;;;;;5058875;28;20110;-57
2021/11/07 00:37:40;;;;;;;1.95;1.20;;;16.60;56.30;;;;;;5075128;28;20051;-57
2021/11/07 00:40:25;;;;;;;1.20;1.10;;;16.60;56.30;;;;;;5075214;28;20028;-58
2021/11/07 00:43:15;;;;;;;2.22;1.10;;;16.60;56.30;;;;;;5074767;28;20099;-57
2021/11/07 00:48:27;;;;;;;1.58;1.10;;;16.60;56.40;;;;;;5074881;28;20031;-57
2021/11/07 00:51:07;;;;;;;1.35;1.05;;;16.60;56.40;;;;;;5074541;28;20024;-58
2021/11/07 00:53:43;;;;;;;5.95;1.30;;;16.60;56.40;;;;;;5075047;28;20044;-57
2021/11/07 00:56:45;;;;;;;1.30;1.20;;;16.60;56.40;;;;;;5074674;28;20472;-58
2021/11/07 01:01:33;;;;;;;1.38;1.27;;;16.50;56.40;;;;;;5074174;28;20067;-58
2021/11/07 01:04:02;;;;;;;1.23;1.13;;;16.50;56.40;;;;;;5074438;28;20028;-55
2021/11/07 01:06:28;;;;;;;1.45;1.20;;;16.50;56.40;;;;;;5074486;28;20021;-57
2021/11/07 01:08:56;;;;;;;1.80;1.15;;;16.60;56.50;;;;;;5074218;28;20028;-57
2021/11/07 01:11:22;;;;;;;2.25;1.30;;;16.50;56.50;;;;;;5073997;28;20021;-57
2021/11/07 01:13:48;;;;;;;2.03;1.10;;;16.50;56.40;;;;;;5056573;28;20008;-58
2021/11/07 01:16:15;;;;;;;1.45;1.20;;;16.50;56.40;;;;;;5074134;28;20492;-57
2021/11/07 01:18:41;;;;;;;1.70;1.20;;;16.50;56.40;;;;;;5056418;28;20016;-57
2021/11/07 01:21:11;;;;;;;3.50;1.50;;;16.60;56.50;;;;;;5074286;28;20020;-58
2021/11/07 01:23:43;;;;;;;1.95;1.30;;;16.50;56.50;;;;;;5074084;28;20016;-57
2021/11/07 01:26:16;;;;;;;1.65;0.93;;;16.50;56.40;;;;;;5073825;28;20112;-57
2021/11/07 01:28:51;;;;;;;1.33;1.05;;;16.50;56.50;;;;;;5073792;28;20035;-57
2021/11/07 01:31:18;;;;;;;1.35;1.10;;;16.50;56.50;;;;;;5073835;28;20029;-57
2021/11/07 01:33:45;;;;;;;1.70;1.10;;;16.50;56.50;;;;;;5073841;28;20055;-58
2021/11/07 01:42:00;;;;;;;1.58;1.27;;;16.50;56.60;;;;;;5031503;28;20021;-57
2021/11/07 01:44:38;;;;;;;2.60;1.38;;;16.50;56.60;;;;;;5031562;28;20068;-57
2021/11/07 01:47:05;;;;;;;1.40;1.30;;;16.50;56.60;;;;;;5031837;28;20042;-57
2021/11/07 01:49:37;;;;;;;1.30;1.10;;;16.50;56.60;;;;;;5031733;28;20088;-57
2021/11/07 01:52:07;;;;;;;1.55;1.10;;;16.50;56.70;;;;;;5031199;28;20515;-57
2021/11/07 01:54:46;;;;;;;1.42;1.15;;;16.50;56.60;;;;;;5015129;28;20026;-58
2021/11/07 01:57:15;;;;;;;2.70;1.25;;;16.50;56.60;;;;;;5031213;28;20013;-57
2021/11/07 01:59:46;;;;;;;1.40;1.25;;;16.50;56.60;;;;;;5031193;28;20497;-57
2021/11/07 02:02:13;;;;;;;1.83;1.20;;;16.50;56.60;;;;;;5032103;28;20036;-58
2021/11/07 02:04:42;;;;;;;2.83;1.30;;;16.50;56.60;;;;;;5032535;28;20023;-58
2021/11/07 02:07:08;;;;;;;1.65;1.25;;;16.50;56.70;;;;;;5032094;28;20049;-58
2021/11/07 02:09:34;;;;;;;1.63;1.30;;;16.50;56.70;;;;;;5015872;28;20505;-58
2021/11/07 02:12:00;;;;;;;2.15;1.42;;;16.60;56.80;;;;;;5033298;28;20021;-58
2021/11/07 02:14:26;;;;;;;2.05;1.25;;;16.50;56.80;;;;;;5073480;28;20066;-57
2021/11/07 02:16:53;;;;;;;1.85;1.23;;;16.50;56.80;;;;;;5075571;28;20048;-58
2021/11/07 02:19:20;;;;;;;1.25;1.08;;;16.50;56.70;;;;;;5076034;28;20009;-58
2021/11/07 02:21:47;;;;;;;1.02;0.93;;;16.50;56.70;;;;;;5075064;28;20043;-58
2021/11/07 02:24:16;;;;;;;1.42;1.10;;;16.50;56.80;;;;;;5074179;28;20024;-57
2021/11/07 02:26:54;;;;;;;2.22;1.30;;;16.50;57.30;;;;;;5073580;28;20485;-57
2021/11/07 02:29:21;;;;;;;1.42;0.95;;;16.50;56.80;;;;;;5075131;28;20384;-58
2021/11/07 02:31:47;;;;;;;0.95;0.90;;;16.50;56.80;;;;;;5075182;28;20016;-58
2021/11/07 02:34:13;;;;;;;1.20;1.10;;;16.50;56.80;;;;;;5074780;28;20028;-58
2021/11/07 02:36:40;;;;;;;1.58;1.10;;;16.50;56.80;;;;;;5073768;28;20017;-58
2021/11/07 02:39:06;;;;;;;1.83;1.20;;;16.50;56.80;;;;;;5075513;28;20021;-58
2021/11/07 02:41:34;;;;;;;1.40;1.20;;;16.50;56.90;;;;;;5075772;28;20024;-58
2021/11/07 02:43:59;;;;;;;1.48;1.05;;;16.50;56.90;;;;;;5074325;28;20017;-58
2021/11/07 02:46:26;;;;;;;2.20;1.25;;;16.50;56.90;;;;;;5074184;28;20021;-57
2021/11/07 02:48:54;;;;;;;1.23;1.02;;;16.50;56.90;;;;;;5074553;28;20472;-58
2021/11/07 02:51:31;;;;;;;1.75;1.00;;;16.50;56.90;;;;;;5074966;28;20036;-58
2021/11/07 02:54:00;;;;;;;1.55;1.10;;;16.50;56.90;;;;;;5073490;28;20538;-59
2021/11/07 02:56:27;;;;;;;1.77;1.10;;;16.50;57.00;;;;;;5073651;28;20088;-58
2021/11/07 02:58:53;;;;;;;1.30;1.00;;;16.50;56.90;;;;;;5073031;28;20446;-58
2021/11/07 03:01:21;;;;;;;2.22;1.17;;;16.50;57.00;;;;;;5054786;28;20044;-58
2021/11/07 03:03:48;;;;;;;1.33;1.10;;;16.50;57.00;;;;;;5072566;28;20670;-58
2021/11/07 03:06:14;;;;;;;1.80;1.08;;;16.50;57.00;;;;;;5054977;28;20070;-58
2021/11/07 03:08:42;;;;;;;1.38;1.17;;;16.50;57.00;;;;;;5072310;28;20045;-58
2021/11/07 03:11:08;;;;;;;3.78;1.10;;;16.50;57.00;;;;;;5072484;28;20067;-58
2021/11/07 03:13:35;;;;;;;1.40;1.05;;;16.50;57.60;;;;;;5072668;28;20032;-58
2021/11/07 03:16:08;;;;;;;1.65;1.27;;;16.50;57.10;;;;;;5072828;28;20024;-58
2021/11/07 03:18:37;;;;;;;1.70;1.20;;;16.50;57.10;;;;;;5073490;28;20487;-58
2021/11/07 03:21:05;;;;;;;1.33;1.10;;;16.50;57.10;;;;;;5072889;28;20528;-58
2021/11/07 03:23:31;;;;;;;1.10;1.00;;;16.50;57.10;;;;;;5073862;28;20056;-58
2021/11/07 03:26:09;;;;;;;1.10;0.90;;;16.50;57.10;;;;;;5076213;28;20025;-58
2021/11/07 03:28:39;;;;;;;1.30;1.10;;;16.50;57.70;;;;;;5077511;28;20048;-58
2021/11/07 03:31:28;;;;;;;2.55;1.20;;;16.50;57.20;;;;;;5077921;28;20503;-58
2021/11/07 03:33:57;;;;;;;1.42;1.00;;;16.50;57.20;;;;;;5078036;28;20028;-58
2021/11/07 03:36:23;;;;;;;1.30;1.10;;;16.50;57.20;;;;;;5061153;28;20472;-58
2021/11/07 03:38:51;;;;;;;1.25;0.85;;;16.50;57.20;;;;;;5076969;28;20009;-58
2021/11/07 03:41:26;;;;;;;1.15;0.90;;;16.50;57.30;;;;;;5076164;28;20012;-58
2021/11/07 03:43:52;;;;;;;1.98;1.20;;;16.50;57.20;;;;;;5076867;28;20028;-58
2021/11/07 03:46:17;;;;;;;1.15;1.00;;;16.50;57.40;;;;;;5058705;28;20013;-58
2021/11/07 03:48:44;;;;;;;1.10;1.00;;;16.50;57.30;;;;;;5076076;28;20028;-58
2021/11/07 03:51:15;;;;;;;1.13;0.93;;;16.50;57.40;;;;;;5075784;28;20032;-58
2021/11/07 03:53:41;;;;;;;1.38;0.82;;;16.40;57.40;;;;;;5075872;28;20017;-60
2021/11/07 03:56:07;;;;;;;1.00;1.00;;;16.50;57.40;;;;;;5057840;28;20026;-58
2021/11/07 03:58:33;;;;;;;1.20;1.10;;;16.40;57.30;;;;;;5057797;28;20024;-59
2021/11/07 04:01:00;;;;;;;1.25;1.02;;;16.50;57.40;;;;;;5076278;28;20020;-58
2021/11/07 04:03:26;;;;;;;1.30;1.05;;;16.50;57.40;;;;;;5075670;28;20451;-58
2021/11/07 04:05:52;;;;;;;1.42;1.33;;;16.50;57.40;;;;;;5057629;28;20021;-58
2021/11/07 04:08:18;;;;;;;1.48;1.13;;;16.40;57.30;;;;;;5057366;28;20407;-58
2021/11/07 04:10:45;;;;;;;1.60;1.27;;;16.50;58.10;;;;;;5075485;28;20035;-58
2021/11/07 04:13:11;;;;;;;1.42;1.20;;;16.50;57.50;;;;;;5075636;28;20008;-58
2021/11/07 04:15:37;;;;;;;2.13;1.20;;;16.50;57.50;;;;;;5075039;28;20016;-58
2021/11/07 04:18:05;;;;;;;1.35;1.10;;;16.50;57.50;;;;;;5057115;28;20031;-58
2021/11/07 04:20:30;;;;;;;1.27;0.95;;;16.40;57.50;;;;;;5075744;28;20070;-59
2021/11/07 04:22:57;;;;;;;1.35;1.00;;;16.50;57.50;;;;;;5075380;28;20017;-58
2021/11/07 04:25:23;;;;;;;1.10;0.82;;;16.50;57.50;;;;;;5075519;28;20036;-58
2021/11/07 04:27:50;;;;;;;1.65;1.10;;;16.50;57.60;;;;;;5075104;28;20029;-58
2021/11/07 04:30:16;;;;;;;1.40;1.08;;;16.40;57.50;;;;;;5057723;28;20037;-58
2021/11/07 04:32:43;;;;;;;1.65;1.13;;;16.40;57.50;;;;;;5075286;28;20031;-58
2021/11/07 04:35:09;;;;;;;1.60;1.13;;;16.50;57.70;;;;;;5074973;28;20070;-58
2021/11/07 04:37:37;;;;;;;1.70;1.30;;;16.50;57.70;;;;;;5074024;28;20009;-59
2021/11/07 04:40:04;;;;;;;1.25;1.02;;;16.50;57.70;;;;;;5075009;28;20523;-61
2021/11/07 04:42:29;;;;;;;2.08;1.15;;;16.50;57.60;;;;;;5057344;28;20046;-58
2021/11/07 04:44:59;;;;;;;2.08;1.20;;;16.50;57.70;;;;;;5075059;28;20028;-58
2021/11/07 04:47:25;;;;;;;1.20;1.05;;;16.50;57.70;;;;;;5075109;28;20075;-58
2021/11/07 04:49:53;;;;;;;1.50;1.05;;;16.50;57.70;;;;;;5056833;28;20489;-58
2021/11/07 04:52:19;;;;;;;1.45;1.35;;;16.50;57.70;;;;;;5074863;28;20546;-58
2021/11/07 04:54:48;;;;;;;1.23;1.10;;;16.50;57.80;;;;;;5075018;28;20020;-58
2021/11/07 04:57:14;;;;;;;1.48;1.15;;;16.40;57.70;;;;;;5074668;28;20043;-58
2021/11/07 04:59:40;;;;;;;1.30;1.02;;;16.50;57.70;;;;;;5074503;28;20024;-58
2021/11/07 05:02:06;;;;;;;0.95;0.85;;;16.40;57.80;;;;;;5074505;28;20016;-58
2021/11/07 05:04:35;;;;;;;1.10;1.00;;;16.50;57.90;;;;;;5074569;28;20051;-58
2021/11/07 05:07:02;;;;;;;1.30;1.05;;;16.40;58.00;;;;;;5074692;28;20090;-58
2021/11/07 05:09:29;;;;;;;1.00;0.90;;;16.50;58.00;;;;;;5074730;28;20112;-58
2021/11/07 05:11:55;;;;;;;1.70;1.02;;;16.50;58.10;;;;;;5074017;28;20495;-58
2021/11/07 05:14:22;;;;;;;1.63;1.05;;;16.40;57.90;;;;;;5074084;28;20009;-58
2021/11/07 05:16:48;;;;;;;1.73;1.02;;;16.40;58.20;;;;;;5074403;28;20066;-58
2021/11/07 05:19:14;;;;;;;1.20;1.00;;;16.50;58.00;;;;;;5074309;28;20023;-58
2021/11/07 05:21:40;;;;;;;1.17;1.02;;;16.40;58.00;;;;;;5056722;28;20017;-58
2021/11/07 05:24:07;;;;;;;1.25;1.15;;;16.40;58.10;;;;;;5075012;28;20047;-58
2021/11/07 05:26:34;;;;;;;1.33;1.00;;;16.40;58.00;;;;;;5075077;28;20403;-58
2021/11/07 05:29:02;;;;;;;2.05;1.38;;;16.40;57.90;;;;;;5074485;28;20009;-58
2021/11/07 05:31:29;;;;;;;1.50;1.20;;;16.40;58.10;;;;;;5074576;28;20158;-58
2021/11/07 05:33:55;;;;;;;1.00;0.90;;;16.40;58.00;;;;;;5074655;28;20016;-58
2021/11/07 05:36:23;;;;;;;2.85;1.30;;;16.40;58.10;;;;;;5074008;28;20039;-58
2021/11/07 05:38:49;;;;;;;1.42;1.05;;;16.40;58.00;;;;;;5073824;28;20462;-58
2021/11/07 05:41:15;;;;;;;1.25;0.90;;;16.40;58.10;;;;;;5055559;28;20020;-58
2021/11/07 05:43:42;;;;;;;1.10;0.80;;;16.40;58.20;;;;;;5073466;28;20476;-58
2021/11/07 05:46:08;;;;;;;1.30;1.10;;;16.40;58.00;;;;;;5073223;28;20477;-58
2021/11/07 05:48:39;;;;;;;1.65;1.30;;;16.40;58.20;;;;;;5073681;28;20044;-58
2021/11/07 05:51:06;;;;;;;3.30;1.00;;;16.40;58.10;;;;;;5074072;28;20499;-58
2021/11/07 05:53:32;;;;;;;1.08;0.98;;;16.40;58.10;;;;;;5073762;28;20052;-58
2021/11/07 05:55:58;;;;;;;1.38;1.05;;;16.50;58.10;;;;;;5073842;28;20022;-58
2021/11/07 05:58:26;;;;;;;0.90;0.90;;;16.40;58.20;;;;;;5073700;28;20017;-58
2021/11/07 06:00:58;;;;;;;1.45;1.10;;;16.40;58.20;;;;;;5056728;28;20044;-58
2021/11/07 06:03:26;;;;;;;1.50;1.00;;;16.40;58.30;;;;;;5073638;28;20024;-59
2021/11/07 06:05:52;;;;;;;1.20;1.00;;;16.40;58.30;;;;;;5073505;28;20074;-59
2021/11/07 06:08:19;;;;;;;1.20;1.10;;;16.40;58.10;;;;;;5072903;28;20048;-59
2021/11/07 06:10:47;;;;;;;1.23;1.00;;;16.40;58.20;;;;;;5073084;28;20033;-59
2021/11/07 06:13:13;;;;;;;1.08;0.98;;;16.40;58.20;;;;;;5073122;28;20029;-60
2021/11/07 06:15:40;;;;;;;1.70;1.10;;;16.40;58.40;;;;;;5073226;28;20012;-59
2021/11/07 06:18:06;;;;;;;1.35;1.00;;;16.40;58.30;;;;;;5073204;28;20400;-59
2021/11/07 06:20:32;;;;;;;1.33;1.00;;;16.40;58.20;;;;;;5055977;28;20059;-59
2021/11/07 06:23:01;;;;;;;1.50;1.00;;;16.40;58.30;;;;;;5073412;28;20019;-59
2021/11/07 06:25:27;;;;;;;1.02;0.90;;;16.40;58.40;;;;;;5055407;28;20025;-60
2021/11/07 06:27:54;;;;;;;1.65;1.08;;;16.40;58.20;;;;;;5073320;28;20100;-59
2021/11/07 06:30:21;;;;;;;1.38;0.98;;;16.40;58.30;;;;;;5073063;28;20063;-59
2021/11/07 06:32:47;;;;;;;1.02;0.82;;;16.40;58.20;;;;;;5073144;28;20009;-60
2021/11/07 06:35:14;;;;;;;1.73;1.13;;;16.40;58.20;;;;;;5073136;28;20071;-59
2021/11/07 06:37:40;;;;;;;1.20;1.10;;;16.40;58.30;;;;;;5072823;28;20019;-59
2021/11/07 06:40:06;;;;;;;2.38;1.50;;;16.40;58.20;;;;;;5072745;28;20027;-59
2021/11/07 06:42:33;;;;;;;1.02;0.90;;;16.40;58.50;;;;;;5073276;28;20012;-59
2021/11/07 06:44:59;;;;;;;1.10;0.90;;;16.40;58.50;;;;;;5072792;28;20107;-60
2021/11/07 06:47:25;;;;;;;2.33;1.25;;;16.40;58.40;;;;;;5072771;28;20015;-59
2021/11/07 06:49:53;;;;;;;1.13;1.00;;;16.40;58.30;;;;;;5072573;28;20033;-60
2021/11/07 06:52:19;;;;;;;1.45;1.10;;;16.40;58.30;;;;;;5072954;28;20016;-59
2021/11/07 06:54:46;;;;;;;1.83;1.17;;;16.40;58.40;;;;;;5072804;28;20017;-59
2021/11/07 06:57:12;;;;;;;1.33;1.08;;;16.40;58.40;;;;;;5072600;28;20372;-60
2021/11/07 06:59:39;;;;;;;1.73;1.08;;;16.40;58.50;;;;;;5055519;28;20024;-59
2021/11/07 07:02:05;;;;;;;1.23;1.10;;;16.40;58.40;;;;;;5077753;28;20019;-59
2021/11/07 07:04:30;;;;;;;1.15;0.90;;;16.40;58.30;;;;;;5076926;28;20025;-58
2021/11/07 07:06:57;;;;;;;1.45;0.80;;;16.40;58.30;;;;;;5076516;28;20070;-60
2021/11/07 07:09:28;;;;;;;1.15;1.00;;;16.40;58.30;;;;;;5077168;28;20119;-58
2021/11/07 07:12:08;;;;;;;1.42;1.25;;;16.40;58.30;;;;;;5077496;28;20384;-58
2021/11/07 07:14:51;;;;;;;1.50;1.20;;;16.40;58.50;;;;;;5077318;28;20027;-58
2021/11/07 07:17:55;;;;;;;2.30;1.13;;;16.40;58.40;;;;;;5061237;28;20029;-58
2021/11/07 07:20:39;;;;;;;1.65;1.10;;;16.40;58.40;;;;;;5074372;28;20098;-58
2021/11/07 07:33:44;;;;;;;1.98;1.00;;;16.40;58.40;;;;;;5076717;28;20043;-58
2021/11/07 07:36:10;;;;;;;1.55;1.00;;;16.40;58.40;;;;;;5077666;28;20099;-58
2021/11/07 07:38:36;;;;;;;1.73;1.10;;;16.40;58.40;;;;;;5076869;28;20013;-57
2021/11/07 07:41:02;;;;;;;1.33;0.90;;;16.40;58.40;;;;;;5076381;28;20017;-58
2021/11/07 07:43:30;;;;;;;1.52;1.10;;;16.40;58.40;;;;;;5076451;28;20047;-57
2021/11/07 07:46:01;;;;;;;0.95;0.80;;;16.40;58.50;;;;;;5076162;28;20097;-58
2021/11/07 07:48:26;;;;;;;1.55;1.13;;;16.40;58.40;;;;;;5076007;28;20028;-57
2021/11/07 07:50:53;;;;;;;1.17;1.00;;;16.40;58.40;;;;;;5075910;28;20024;-58
2021/11/07 07:53:22;;;;;;;1.42;1.10;;;16.40;58.50;;;;;;5076228;28;20033;-58
2021/11/07 07:55:48;;;;;;;1.35;1.15;;;16.40;58.50;;;;;;5075814;28;20047;-59
2021/11/07 07:58:14;;;;;;;1.27;1.00;;;16.40;58.50;;;;;;5075891;28;20013;-60
2021/11/07 08:00:41;;;;;;;1.10;0.93;;;16.40;58.40;;;;;;5075797;28;20017;-58
2021/11/07 08:03:07;;;;;;;1.38;1.10;;;16.40;58.40;;;;;;5075749;28;20021;-58
2021/11/07 08:05:34;;;;;;;1.98;1.40;;;16.40;58.40;;;;;;5075673;28;20384;-58
2021/11/07 08:08:01;;;;;;;2.95;1.27;;;16.40;58.40;;;;;;5075240;28;20041;-58
2021/11/07 08:10:27;;;;;;;1.75;1.02;;;16.40;58.40;;;;;;5075984;28;20032;-58
2021/11/07 08:12:53;;;;;;;1.95;1.20;;;16.40;58.40;;;;;;5074363;28;20044;-58
2021/11/07 08:15:20;;;;;;;1.38;1.05;;;16.40;58.40;;;;;;5075442;28;20025;-58
2021/11/07 08:17:46;;;;;;;1.98;0.90;;;16.40;58.40;;;;;;5075832;28;20028;-57
2021/11/07 08:20:13;;;;;;;1.27;1.10;;;16.40;58.50;;;;;;5075551;28;20032;-58
2021/11/07 08:22:41;;;;;;;1.55;0.93;;;16.40;58.90;;;;;;5075224;28;20099;-59
2021/11/07 08:25:15;;;;;;;1.58;0.93;;;16.40;58.30;;;;;;5075195;28;20017;-59
2021/11/07 08:27:43;;;;;;;2.50;1.30;;;16.40;58.40;;;;;;5075577;28;20100;-59
2021/11/07 08:30:10;;;;;;;1.00;0.90;;;16.40;58.40;;;;;;5057571;28;20484;-59
2021/11/07 08:32:35;;;;;;;1.33;1.00;;;16.40;58.40;;;;;;5074787;28;20016;-59
2021/11/07 08:35:02;;;;;;;3.53;1.42;;;16.40;58.40;;;;;;5074649;28;20087;-59
2021/11/07 08:37:44;;;;;;;1.85;1.10;;;16.40;58.40;;;;;;5057100;28;20051;-59
2021/11/07 08:40:14;;;;;;;1.58;1.10;;;16.40;58.30;;;;;;5075646;28;20111;-58
2021/11/07 09:07:38;;;;;;;1.75;1.10;;;16.40;58.20;;;;;;5074635;28;20135;-59
2021/11/07 09:10:22;;;;;;;2.15;1.10;;;16.40;58.20;;;;;;5074345;28;20024;-59
2021/11/07 09:12:48;;;;;;;1.88;1.10;;;16.40;58.70;;;;;;5073982;28;20472;-59
2021/11/07 09:15:25;;;;;;;1.77;1.10;;;16.40;58.20;;;;;;5074724;28;20009;-59
2021/11/07 09:17:52;;;;;;;3.20;1.17;;;16.40;58.20;;;;;;5074247;28;20012;-59
2021/11/07 09:20:23;;;;;;;1.80;0.98;;;16.50;58.20;;;;;;5073920;28;20012;-59
2021/11/07 09:22:53;;;;;;;1.92;0.98;;;16.50;58.10;;;;;;5073387;28;20024;-59
2021/11/07 09:25:42;;;;;;;1.27;1.10;;;16.50;58.10;;;;;;5074190;28;20016;-59
2021/11/07 09:28:14;;;;;;;1.58;1.08;;;16.40;58.00;;;;;;5073679;28;20048;-59
2021/11/07 09:38:10;;;;;;;1.50;1.00;;;16.50;58.00;;;;;;5074083;28;20028;-59
2021/11/07 09:40:43;;;;;;;1.10;1.00;;;16.50;58.00;;;;;;5057406;28;20491;-59
2021/11/07 09:48:12;;;;;;;1.58;0.80;;;16.50;58.00;;;;;;5074739;28;20029;-58
2021/11/07 09:50:41;;;;;;;2.28;1.23;;;16.50;57.90;;;;;;5073155;28;20052;-60
2021/11/07 09:53:08;;;;;;;3.00;1.30;;;16.50;57.90;;;;;;5073340;28;20036;-59
2021/11/07 09:55:34;;;;;;;2.08;1.10;;;16.50;57.90;;;;;;5073496;28;20025;-59
2021/11/07 09:58:03;;;;;;;1.92;1.20;;;16.50;57.80;;;;;;5055594;28;20033;-59
2021/11/07 10:00:44;;;;;;;2.10;1.10;;;16.50;57.80;;;;;;5073114;28;20070;-59
2021/11/07 10:03:11;;;;;;;2.20;1.20;;;16.50;57.80;;;;;;5073317;28;20012;-59
2021/11/07 10:05:39;;;;;;;1.45;0.98;;;16.50;57.80;;;;;;5073974;28;20024;-59
2021/11/07 10:08:06;;;;;;;1.23;1.00;;;16.50;57.80;;;;;;5073369;28;20492;-59
2021/11/07 10:10:35;;;;;;;2.38;1.10;;;16.50;57.80;;;;;;5055942;28;20039;-59
2021/11/07 10:13:11;;;;;;;2.03;1.10;;;16.50;57.80;;;;;;5073164;28;20131;-58
2021/11/07 10:15:49;;;;;;;1.83;1.30;;;16.50;57.80;;;;;;5055497;28;20538;-59
2021/11/07 10:18:42;;;;;;;1.80;1.10;;;16.50;57.70;;;;;;5057150;28;20021;-59
2021/11/07 10:21:22;;;;;;;2.17;1.17;;;16.50;57.70;;;;;;5073244;28;20019;-59
2021/11/07 10:24:14;;;;;;;2.35;1.05;;;16.50;57.60;;;;;;5072850;28;20020;-58
2021/11/07 10:26:44;;;;;;;1.80;1.02;;;16.50;57.60;;;;;;5072785;28;20020;-59
2021/11/07 10:29:28;;;;;;;2.15;1.33;;;16.60;57.60;;;;;;5072865;28;20520;-59
2021/11/07 10:32:16;;;;;;;2.13;1.27;;;16.60;57.60;;;;;;5055366;28;20031;-59
2021/11/07 10:42:30;;;;;;;2.00;1.23;;;16.60;57.50;;;;;;5072819;28;20024;-59
2021/11/07 10:52:42;;;;;;;3.17;1.15;;;16.60;57.40;;;;;;5073190;28;20492;-59
2021/11/07 10:55:34;;;;;;;2.33;1.20;;;16.60;57.40;;;;;;5072996;28;20020;-59
2021/11/07 10:58:02;;;;;;;1.70;0.95;;;16.60;57.40;;;;;;5073166;28;20009;-58
2021/11/07 11:00:34;;;;;;;1.58;0.98;;;16.60;57.30;;;;;;5073223;28;20012;-59
2021/11/07 11:03:03;;;;;;;2.08;1.00;;;16.60;57.40;;;;;;5054864;28;20028;-59
2021/11/07 11:05:48;;;;;;;2.22;1.25;;;16.60;57.30;;;;;;5072793;28;20089;-59
2021/11/07 11:08:23;;;;;;;2.90;1.15;;;16.60;57.30;;;;;;5072599;28;20055;-59
2021/11/07 11:21:34;;;;;;;2.70;1.42;;;16.50;57.40;;;;;;4971518;28;20030;-58
2021/11/07 11:29:40;;;;;;;3.00;1.40;;;16.50;57.30;;;;;;4971482;28;20034;-59
2021/11/07 11:32:20;;;;;;;2.08;1.10;;;16.50;57.20;;;;;;4971399;28;20039;-59
2021/11/07 11:38:02;;;;;;;2.30;1.20;;;16.60;57.80;;;;;;4954943;28;20039;-59
2021/11/07 11:40:43;;;;;;;4.30;1.10;;;16.60;57.30;;;;;;4971401;28;20118;-59
2021/11/07 11:43:18;;;;;;;1.95;1.08;;;16.60;57.20;;;;;;4957362;28;20030;-59
2021/11/07 11:45:46;;;;;;;1.83;1.00;;;16.60;57.20;;;;;;4971522;28;20110;-59
2021/11/07 11:49:06;;;;;;;1.33;0.98;;;16.60;57.10;;;;;;4975220;28;20039;-59
2021/11/07 11:54:22;;;;;;;2.17;1.02;;;16.60;57.00;;;;;;5041491;28;20025;-59
2021/11/07 12:08:44;;;;;;;2.83;1.30;;;16.60;56.90;;;;;;4974500;28;20423;-58
2021/11/07 12:16:23;;;;;;;2.85;1.25;;;16.60;56.80;;;;;;4974531;28;20023;-59
2021/11/07 12:19:09;;;;;;;3.13;1.23;;;16.70;56.80;;;;;;4959020;28;20102;-58
2021/11/07 12:22:00;;;;;;;2.95;1.30;;;16.70;56.80;;;;;;4974355;28;20030;-59
2021/11/07 12:24:34;;;;;;;1.35;1.02;;;16.70;56.70;;;;;;4974631;28;20041;-58
2021/11/07 12:27:27;;;;;;;1.73;1.27;;;16.70;56.70;;;;;;4974889;28;20030;-58
2021/11/07 12:30:23;;;;;;;2.40;1.17;;;16.70;56.70;;;;;;4974692;28;20062;-58
2021/11/07 12:32:50;;;;;;;2.08;1.00;;;16.70;56.70;;;;;;4974583;28;20083;-58
2021/11/07 12:35:33;;;;;;;2.33;1.10;;;16.70;56.60;;;;;;4974124;28;20089;-59
2021/11/07 12:41:03;;;;;;;2.55;1.20;;;16.60;56.60;;;;;;4975113;28;20029;-60
2021/11/07 12:43:34;;;;;;;2.40;1.30;;;16.60;56.60;;;;;;4999706;28;20035;-59
2021/11/07 12:46:17;;;;;;;1.83;1.05;;;16.60;56.60;;;;;;5075563;28;20017;-58
2021/11/07 12:48:51;;;;;;;3.10;1.20;;;16.60;56.60;;;;;;5075731;28;20052;-60
2021/11/07 12:51:31;;;;;;;2.20;1.10;;;16.60;56.60;;;;;;5074808;28;20031;-59
2021/11/07 12:54:10;;;;;;;2.25;1.10;;;16.60;56.60;;;;;;5075123;28;20016;-59
2021/11/07 12:56:40;;;;;;;3.25;1.38;;;16.60;56.50;;;;;;5075079;28;20017;-59
2021/11/07 12:59:08;;;;;;;2.00;1.23;;;16.60;56.60;;;;;;5073850;28;20013;-59
2021/11/07 13:02:18;;;;;;;3.58;1.40;;;16.60;56.50;;;;;;5074195;28;20019;-61
2021/11/07 13:05:02;;;;;;;2.40;1.20;;;16.60;56.50;;;;;;4973569;28;20110;-59
2021/11/07 13:07:32;;;;;;;2.90;1.27;;;16.60;56.50;;;;;;4973303;28;20503;-59
2021/11/07 13:10:05;;;;;;;2.00;0.93;;;16.60;56.50;;;;;;4973382;28;20038;-59
2021/11/07 13:12:41;;;;;;;2.15;1.08;;;16.60;56.50;;;;;;4973367;28;20018;-59
2021/11/07 13:15:33;;;;;;;3.05;1.30;;;16.60;56.30;;;;;;4973324;28;20020;-59
2021/11/07 13:26:05;;;;;;;3.05;1.27;;;16.70;56.10;;;;;;4940645;28;20502;-59
2021/11/07 13:33:41;;;;;;;2.20;1.00;;;16.70;56.10;;;;;;4973008;28;20106;-60
2021/11/07 13:36:07;;;;;;;3.67;1.23;;;16.70;56.20;;;;;;5054448;28;20081;-60
2021/11/07 13:38:44;;;;;;;3.80;1.17;;;16.70;56.20;;;;;;5073780;28;20023;-59
2021/11/07 13:41:14;;;;;;;1.83;1.02;;;16.70;56.20;;;;;;5055817;28;20503;-59
2021/11/07 13:43:40;;;;;;;2.50;1.40;;;16.70;56.20;;;;;;5055515;28;20024;-60
2021/11/07 13:46:06;;;;;;;2.30;1.38;;;16.70;56.20;;;;;;5073683;28;20016;-60
2021/11/07 13:48:33;;;;;;;2.88;1.10;;;16.70;56.20;;;;;;5073753;28;20023;-59
2021/11/07 13:51:02;;;;;;;3.53;1.35;;;16.70;56.20;;;;;;5055599;28;20036;-60
2021/11/07 13:53:35;;;;;;;2.83;1.30;;;16.70;56.10;;;;;;5073206;28;20479;-60
2021/11/07 13:56:04;;;;;;;2.63;1.38;;;16.70;56.10;;;;;;5073680;28;20031;-59
2021/11/07 13:58:31;;;;;;;3.35;1.33;;;16.70;56.10;;;;;;5073453;28;20009;-60
2021/11/07 14:01:00;;;;;;;3.13;1.10;;;16.70;55.90;;;;;;5073017;28;20043;-60
2021/11/07 14:03:27;;;;;;;2.80;1.13;;;16.70;55.80;;;;;;5073327;28;20016;-60
2021/11/07 14:05:55;;;;;;;3.78;1.35;;;16.80;55.80;;;;;;5074043;28;20025;-59
2021/11/07 14:08:23;;;;;;;1.98;1.05;;;16.70;55.80;;;;;;5073186;28;20119;-59
2021/11/07 14:10:48;;;;;;;2.28;1.20;;;16.70;55.90;;;;;;5055450;28;20032;-58
2021/11/07 14:13:18;;;;;;;3.40;1.23;;;16.70;55.80;;;;;;5073181;28;20008;-60
2021/11/07 14:15:47;;;;;;;3.38;1.17;;;16.70;55.80;;;;;;5074102;28;20047;-60
2021/11/07 14:18:24;;;;;;;2.33;1.05;;;16.70;55.90;;;;;;5074292;28;20051;-59
2021/11/07 14:20:58;;;;;;;2.42;1.23;;;16.70;55.90;;;;;;5073262;28;20400;-60
2021/11/07 14:23:50;;;;;;;3.15;1.35;;;16.70;55.90;;;;;;5072844;28;20013;-60
2021/11/07 14:26:26;;;;;;;2.42;1.13;;;16.70;55.90;;;;;;5072782;28;20029;-60
2021/11/07 14:29:19;;;;;;;2.88;1.17;;;16.80;56.00;;;;;;5073147;28;20093;-59
2021/11/07 14:34:35;;;;;;;2.13;1.17;;;16.70;55.90;;;;;;5072784;28;20021;-59
2021/11/07 14:40:04;;;;;;;1.50;1.00;;;16.70;55.90;;;;;;5073155;28;20028;-59
2021/11/07 14:51:09;;;;;;;2.00;1.10;;;16.70;56.00;;;;;;5073146;28;20043;-60
2021/11/07 14:53:43;;;;;;;2.38;1.23;;;16.60;56.00;;;;;;5073598;28;20025;-59
2021/11/07 15:07:03;;;;;;;1.92;1.20;;;16.60;56.00;;;;;;5073182;28;20046;-60
2021/11/07 15:10:21;;;;;;;2.05;1.10;;;16.60;56.00;;;;;;5073247;28;20020;-59
2021/11/07 15:15:30;;;;;;;2.85;1.50;;;16.60;56.00;;;;;;5073265;28;20024;-59
2021/11/07 15:18:23;;;;;;;8.43;1.50;;;16.60;56.10;;;;;;4972487;28;20094;-59
2021/11/07 15:23:39;;;;;;;2.83;1.35;;;16.50;56.00;;;;;;4975846;28;20033;-59
2021/11/07 15:26:35;;;;;;;3.33;1.20;;;16.60;56.10;;;;;;4975778;28;20102;-60
2021/11/07 15:29:46;;;;;;;3.35;1.45;;;16.50;56.10;;;;;;4975104;28;20440;-59
2021/11/07 15:32:14;;;;;;;3.35;1.30;;;16.60;56.10;;;;;;4937411;29;20504;-60
2021/11/07 15:34:43;;;;;;;3.65;1.08;;;16.50;56.10;;;;;;4937294;29;20496;-59
2021/11/07 15:37:20;;;;;;;6.38;1.55;;;16.50;56.10;;;;;;4921722;29;20107;-60
2021/11/07 15:39:47;;;;;;;3.63;1.20;;;16.60;56.30;;;;;;4921679;29;20027;-59
2021/11/07 15:42:18;;;;;;;3.50;1.80;;;16.60;56.10;;;;;;4937574;29;20054;-60
2021/11/07 15:44:48;;;;;;;5.80;1.60;;;16.60;56.00;;;;;;4937289;29;20047;-60
2021/11/07 15:47:16;;;;;;;7.50;1.87;;;16.50;56.00;;;;;;4937369;29;20034;-59
2021/11/07 15:49:50;;;;;;;3.85;1.30;;;16.50;56.10;;;;;;4937581;29;20260;-59
2021/11/07 15:52:29;;;;;;;3.40;1.40;;;16.50;56.10;;;;;;4925854;28;20076;-60
2021/11/07 15:55:06;;;;;;;3.38;1.27;;;16.50;56.10;;;;;;5014835;28;20021;-59
2021/11/07 15:57:42;;;;;;;3.13;1.35;;;16.50;56.20;;;;;;5015107;28;20038;-60
2021/11/07 16:05:49;;;;;;;2.67;1.10;;;16.50;56.20;;;;;;5028715;28;20028;-58